Terminal Aerodrome Forecast
Issued by NWS

Home | Current Version | Previous Version | Text Only | Print | Product List | Glossary On
Versions: 1 2 3 4 5 6 7 8 9 10 11 12 13 14 15 16 17 18 19 20 21 22 23 24 25 26 27 28 29 30 31 32 33 34 35 36 37 38 39 40
000
FTUS46 KOTX 282339
TAFPUW
TAF
KPUW 282339Z 2900/2924 20013G24KT P6SM -RA SCT029 OVC050
      WS020/22045KT
     FM290300 22020G33KT 6SM -RA BR BKN025 OVC040
     FM290800 22023G30KT P6SM SCT010 SCT020 OVC060
     FM291900 29020G29KT P6SM VCSH SCT020 BKN050 PROB30 2919/2923
      3SM -SHSN BKN020=

USA.gov is the U.S. government's official web portal to all federal, state and local government web resources and services.